DIA weather

Doha International Airport
Doha, Ad Dawhah Municipality, Qatar

Public forecast

Using degrees Celsius for public forecast. Weather courtesy of forecast.io.

METAR (pilot weather report)

Retrieved 2019/05/20 15:30 UTC (25 minutes ago):

OTBD 201530Z 36009KT 6000 NSC 29/24 Q1006 NOSIG

TAF (pilot weather forecast)

Retrieved 2019/05/20 12:00 UTC (4 hours ago):

TAF OTBD 201103Z 2012/2118 04012KT 8000 NSC TEMPO 2016/2021 -RA FEW035 SCT140 TEMPO 2019/2104 VRB03KT